sensor_id;sensor_type;location;lat;lon;timestamp;P1;durP1;ratioP1;P2;durP2;ratioP2
27424;SDS011;15244;49.088;11.886;2023-08-06T00:00:12;4.72;;;4.53;;
27424;SDS011;15244;49.088;11.886;2023-08-06T00:05:16;5.30;;;4.82;;
27424;SDS011;15244;49.088;11.886;2023-08-06T00:10:22;4.97;;;4.68;;
27424;SDS011;15244;49.088;11.886;2023-08-06T00:15:23;3.45;;;3.25;;
27424;SDS011;15244;49.088;11.886;2023-08-06T00:20:25;4.45;;;4.15;;
27424;SDS011;15244;49.088;11.886;2023-08-06T00:25:27;4.47;;;4.07;;
27424;SDS011;15244;49.088;11.886;2023-08-06T00:30:28;4.45;;;4.25;;
27424;SDS011;15244;49.088;11.886;2023-08-06T00:35:30;5.30;;;4.65;;
27424;SDS011;15244;49.088;11.886;2023-08-06T00:40:31;3.65;;;3.35;;
27424;SDS011;15244;49.088;11.886;2023-08-06T00:45:34;2.67;;;2.58;;
27424;SDS011;15244;49.088;11.886;2023-08-06T00:50:36;1.90;;;1.80;;
27424;SDS011;15244;49.088;11.886;2023-08-06T00:55:38;1.70;;;1.60;;
27424;SDS011;15244;49.088;11.886;2023-08-06T01:00:40;3.17;;;1.30;;
27424;SDS011;15244;49.088;11.886;2023-08-06T01:05:41;2.15;;;1.30;;
27424;SDS011;15244;49.088;11.886;2023-08-06T01:11:05;1.20;;;1.20;;
27424;SDS011;15244;49.088;11.886;2023-08-06T01:16:16;1.55;;;1.45;;
27424;SDS011;15244;49.088;11.886;2023-08-06T01:21:19;1.42;;;1.33;;
27424;SDS011;15244;49.088;11.886;2023-08-06T01:26:32;2.55;;;2.00;;
27424;SDS011;15244;49.088;11.886;2023-08-06T01:31:43;1.40;;;1.35;;
27424;SDS011;15244;49.088;11.886;2023-08-06T01:36:46;2.53;;;1.58;;
27424;SDS011;15244;49.088;11.886;2023-08-06T01:41:48;1.98;;;1.75;;
27424;SDS011;15244;49.088;11.886;2023-08-06T01:46:50;1.48;;;1.42;;
27424;SDS011;15244;49.088;11.886;2023-08-06T01:51:52;1.67;;;1.58;;
27424;SDS011;15244;49.088;11.886;2023-08-06T01:56:54;1.52;;;1.42;;
27424;SDS011;15244;49.088;11.886;2023-08-06T02:01:56;1.60;;;1.50;;
27424;SDS011;15244;49.088;11.886;2023-08-06T02:06:59;1.65;;;1.52;;
27424;SDS011;15244;49.088;11.886;2023-08-06T02:12:01;1.80;;;1.70;;
27424;SDS011;15244;49.088;11.886;2023-08-06T02:17:03;1.63;;;1.52;;
27424;SDS011;15244;49.088;11.886;2023-08-06T02:22:05;1.60;;;1.50;;
27424;SDS011;15244;49.088;11.886;2023-08-06T02:27:06;1.48;;;1.38;;
27424;SDS011;15244;49.088;11.886;2023-08-06T02:32:08;1.65;;;1.55;;
27424;SDS011;15244;49.088;11.886;2023-08-06T02:37:10;1.50;;;1.40;;
27424;SDS011;15244;49.088;11.886;2023-08-06T02:42:12;1.67;;;1.58;;
27424;SDS011;15244;49.088;11.886;2023-08-06T02:47:14;2.20;;;2.00;;
27424;SDS011;15244;49.088;11.886;2023-08-06T02:52:16;1.58;;;1.52;;
27424;SDS011;15244;49.088;11.886;2023-08-06T02:57:18;1.38;;;1.38;;
27424;SDS011;15244;49.088;11.886;2023-08-06T03:02:22;1.85;;;1.75;;
27424;SDS011;15244;49.088;11.886;2023-08-06T03:07:50;1.60;;;1.50;;
27424;SDS011;15244;49.088;11.886;2023-08-06T03:12:56;1.60;;;1.50;;
27424;SDS011;15244;49.088;11.886;2023-08-06T03:17:58;2.25;;;2.03;;
27424;SDS011;15244;49.088;11.886;2023-08-06T03:23:00;1.92;;;1.75;;
27424;SDS011;15244;49.088;11.886;2023-08-06T03:28:03;2.28;;;1.90;;
27424;SDS011;15244;49.088;11.886;2023-08-06T03:33:07;1.80;;;1.70;;
27424;SDS011;15244;49.088;11.886;2023-08-06T03:38:09;2.05;;;1.95;;
27424;SDS011;15244;49.088;11.886;2023-08-06T03:43:10;2.20;;;2.10;;
27424;SDS011;15244;49.088;11.886;2023-08-06T03:48:12;2.72;;;2.00;;
27424;SDS011;15244;49.088;11.886;2023-08-06T03:53:14;1.83;;;1.73;;
27424;SDS011;15244;49.088;11.886;2023-08-06T03:58:15;1.77;;;1.67;;
27424;SDS011;15244;49.088;11.886;2023-08-06T04:03:17;2.15;;;2.05;;
27424;SDS011;15244;49.088;11.886;2023-08-06T04:08:19;1.88;;;1.77;;
27424;SDS011;15244;49.088;11.886;2023-08-06T04:13:20;1.85;;;1.75;;
27424;SDS011;15244;49.088;11.886;2023-08-06T04:18:23;2.03;;;1.92;;
27424;SDS011;15244;49.088;11.886;2023-08-06T04:23:26;4.57;;;2.00;;
27424;SDS011;15244;49.088;11.886;2023-08-06T04:28:34;1.80;;;1.70;;
27424;SDS011;15244;49.088;11.886;2023-08-06T04:33:36;1.80;;;1.70;;
27424;SDS011;15244;49.088;11.886;2023-08-06T04:38:42;1.98;;;1.88;;
27424;SDS011;15244;49.088;11.886;2023-08-06T04:43:48;1.60;;;1.50;;
27424;SDS011;15244;49.088;11.886;2023-08-06T04:48:50;2.28;;;2.17;;
27424;SDS011;15244;49.088;11.886;2023-08-06T04:53:52;1.98;;;1.85;;
27424;SDS011;15244;49.088;11.886;2023-08-06T04:58:54;2.25;;;1.90;;
27424;SDS011;15244;49.088;11.886;2023-08-06T05:03:55;1.67;;;1.60;;
27424;SDS011;15244;49.088;11.886;2023-08-06T05:08:57;2.13;;;1.92;;
27424;SDS011;15244;49.088;11.886;2023-08-06T05:13:58;2.03;;;1.92;;
27424;SDS011;15244;49.088;11.886;2023-08-06T05:19:00;1.73;;;1.63;;
27424;SDS011;15244;49.088;11.886;2023-08-06T05:24:02;1.88;;;1.77;;
27424;SDS011;15244;49.088;11.886;2023-08-06T05:29:03;1.88;;;1.77;;
27424;SDS011;15244;49.088;11.886;2023-08-06T05:34:05;2.22;;;2.03;;
27424;SDS011;15244;49.088;11.886;2023-08-06T05:39:06;1.90;;;1.80;;
27424;SDS011;15244;49.088;11.886;2023-08-06T05:44:08;1.92;;;1.83;;
27424;SDS011;15244;49.088;11.886;2023-08-06T05:49:10;2.40;;;1.80;;
27424;SDS011;15244;49.088;11.886;2023-08-06T05:54:13;1.85;;;1.75;;
27424;SDS011;15244;49.088;11.886;2023-08-06T05:59:15;1.45;;;1.35;;
27424;SDS011;15244;49.088;11.886;2023-08-06T06:04:17;2.38;;;1.77;;
27424;SDS011;15244;49.088;11.886;2023-08-06T06:09:18;1.98;;;1.88;;
27424;SDS011;15244;49.088;11.886;2023-08-06T06:14:20;2.22;;;2.10;;
27424;SDS011;15244;49.088;11.886;2023-08-06T06:19:23;1.80;;;1.70;;
27424;SDS011;15244;49.088;11.886;2023-08-06T06:24:24;2.33;;;2.22;;
27424;SDS011;15244;49.088;11.886;2023-08-06T06:29:26;2.70;;;2.58;;
27424;SDS011;15244;49.088;11.886;2023-08-06T06:34:27;2.83;;;2.63;;
27424;SDS011;15244;49.088;11.886;2023-08-06T06:39:29;2.60;;;2.40;;
27424;SDS011;15244;49.088;11.886;2023-08-06T06:44:30;2.58;;;2.38;;
27424;SDS011;15244;49.088;11.886;2023-08-06T06:49:32;2.95;;;2.85;;
27424;SDS011;15244;49.088;11.886;2023-08-06T06:54:34;3.03;;;2.83;;
27424;SDS011;15244;49.088;11.886;2023-08-06T06:59:35;2.90;;;2.78;;
27424;SDS011;15244;49.088;11.886;2023-08-06T07:04:37;3.17;;;2.97;;
27424;SDS011;15244;49.088;11.886;2023-08-06T07:09:38;3.20;;;2.90;;
27424;SDS011;15244;49.088;11.886;2023-08-06T07:14:40;3.15;;;2.85;;
27424;SDS011;15244;49.088;11.886;2023-08-06T07:19:42;2.67;;;2.40;;
27424;SDS011;15244;49.088;11.886;2023-08-06T07:24:43;3.42;;;2.67;;
27424;SDS011;15244;49.088;11.886;2023-08-06T07:29:45;2.88;;;2.50;;
27424;SDS011;15244;49.088;11.886;2023-08-06T07:34:46;3.28;;;2.20;;
27424;SDS011;15244;49.088;11.886;2023-08-06T07:39:48;2.20;;;2.00;;
27424;SDS011;15244;49.088;11.886;2023-08-06T07:44:56;2.10;;;1.90;;
27424;SDS011;15244;49.088;11.886;2023-08-06T07:49:59;2.35;;;1.85;;
27424;SDS011;15244;49.088;11.886;2023-08-06T07:55:01;2.03;;;1.83;;
27424;SDS011;15244;49.088;11.886;2023-08-06T08:00:06;1.60;;;1.50;;
27424;SDS011;15244;49.088;11.886;2023-08-06T08:05:12;1.55;;;1.45;;
27424;SDS011;15244;49.088;11.886;2023-08-06T08:10:14;1.20;;;1.20;;
27424;SDS011;15244;49.088;11.886;2023-08-06T08:15:16;1.70;;;1.60;;
27424;SDS011;15244;49.088;11.886;2023-08-06T08:20:17;1.50;;;1.40;;
27424;SDS011;15244;49.088;11.886;2023-08-06T08:25:19;4.28;;;1.85;;
27424;SDS011;15244;49.088;11.886;2023-08-06T08:30:21;2.03;;;1.65;;
27424;SDS011;15244;49.088;11.886;2023-08-06T08:35:23;1.17;;;1.10;;
27424;SDS011;15244;49.088;11.886;2023-08-06T08:40:29;1.42;;;1.33;;
27424;SDS011;15244;49.088;11.886;2023-08-06T08:45:34;1.48;;;1.40;;
27424;SDS011;15244;49.088;11.886;2023-08-06T08:50:39;1.25;;;1.25;;
27424;SDS011;15244;49.088;11.886;2023-08-06T08:55:42;1.10;;;1.10;;
27424;SDS011;15244;49.088;11.886;2023-08-06T09:00:45;1.75;;;1.42;;
27424;SDS011;15244;49.088;11.886;2023-08-06T09:05:48;0.90;;;0.90;;
27424;SDS011;15244;49.088;11.886;2023-08-06T09:10:53;1.08;;;0.80;;
27424;SDS011;15244;49.088;11.886;2023-08-06T09:15:55;1.65;;;1.55;;
27424;SDS011;15244;49.088;11.886;2023-08-06T09:20:57;0.90;;;0.90;;
27424;SDS011;15244;49.088;11.886;2023-08-06T09:25:59;1.13;;;1.13;;
27424;SDS011;15244;49.088;11.886;2023-08-06T09:31:01;1.00;;;0.90;;
27424;SDS011;15244;49.088;11.886;2023-08-06T09:36:09;0.70;;;0.70;;
27424;SDS011;15244;49.088;11.886;2023-08-06T09:41:13;0.47;;;0.30;;
27424;SDS011;15244;49.088;11.886;2023-08-06T09:46:28;0.30;;;0.30;;
27424;SDS011;15244;49.088;11.886;2023-08-06T09:51:33;0.30;;;0.30;;
27424;SDS011;15244;49.088;11.886;2023-08-06T09:56:35;0.57;;;0.32;;
27424;SDS011;15244;49.088;11.886;2023-08-06T10:01:39;0.57;;;0.40;;
27424;SDS011;15244;49.088;11.886;2023-08-06T10:06:40;1.30;;;0.70;;
27424;SDS011;15244;49.088;11.886;2023-08-06T10:11:43;3.20;;;0.85;;
27424;SDS011;15244;49.088;11.886;2023-08-06T10:16:49;0.50;;;0.50;;
27424;SDS011;15244;49.088;11.886;2023-08-06T10:22:07;0.50;;;0.50;;
27424;SDS011;15244;49.088;11.886;2023-08-06T10:27:09;1.85;;;0.60;;
27424;SDS011;15244;49.088;11.886;2023-08-06T10:32:10;0.90;;;0.52;;
27424;SDS011;15244;49.088;11.886;2023-08-06T10:37:14;0.40;;;0.40;;
27424;SDS011;15244;49.088;11.886;2023-08-06T10:42:20;2.83;;;0.57;;
27424;SDS011;15244;49.088;11.886;2023-08-06T10:47:26;0.88;;;0.38;;
27424;SDS011;15244;49.088;11.886;2023-08-06T10:52:28;0.32;;;0.20;;
27424;SDS011;15244;49.088;11.886;2023-08-06T10:57:30;0.98;;;0.40;;
27424;SDS011;15244;49.088;11.886;2023-08-06T11:02:35;0.17;;;0.17;;
27424;SDS011;15244;49.088;11.886;2023-08-06T11:07:37;0.10;;;0.10;;
27424;SDS011;15244;49.088;11.886;2023-08-06T11:12:39;0.25;;;0.25;;
27424;SDS011;15244;49.088;11.886;2023-08-06T11:17:41;0.28;;;0.28;;
27424;SDS011;15244;49.088;11.886;2023-08-06T11:22:43;1.75;;;0.40;;
27424;SDS011;15244;49.088;11.886;2023-08-06T11:27:45;0.28;;;0.25;;
27424;SDS011;15244;49.088;11.886;2023-08-06T11:32:47;0.20;;;0.20;;
27424;SDS011;15244;49.088;11.886;2023-08-06T11:37:49;0.10;;;0.10;;
27424;SDS011;15244;49.088;11.886;2023-08-06T11:42:51;1.00;;;0.10;;
27424;SDS011;15244;49.088;11.886;2023-08-06T11:47:53;0.10;;;0.10;;
27424;SDS011;15244;49.088;11.886;2023-08-06T11:52:59;0.00;;;0.00;;
27424;SDS011;15244;49.088;11.886;2023-08-06T11:58:05;0.10;;;0.10;;
27424;SDS011;15244;49.088;11.886;2023-08-06T12:03:06;0.13;;;0.10;;
27424;SDS011;15244;49.088;11.886;2023-08-06T12:08:08;0.10;;;0.10;;
27424;SDS011;15244;49.088;11.886;2023-08-06T12:13:10;0.00;;;0.00;;
27424;SDS011;15244;49.088;11.886;2023-08-06T12:18:12;0.10;;;0.10;;
27424;SDS011;15244;49.088;11.886;2023-08-06T12:23:14;0.10;;;0.10;;
27424;SDS011;15244;49.088;11.886;2023-08-06T12:28:16;0.10;;;0.10;;
27424;SDS011;15244;49.088;11.886;2023-08-06T12:33:18;1.77;;;0.10;;
27424;SDS011;15244;49.088;11.886;2023-08-06T12:38:20;0.40;;;0.10;;
27424;SDS011;15244;49.088;11.886;2023-08-06T12:43:21;0.20;;;0.20;;
27424;SDS011;15244;49.088;11.886;2023-08-06T12:48:23;1.35;;;0.10;;
27424;SDS011;15244;49.088;11.886;2023-08-06T12:53:24;0.17;;;0.00;;
27424;SDS011;15244;49.088;11.886;2023-08-06T12:58:26;0.40;;;0.10;;
27424;SDS011;15244;49.088;11.886;2023-08-06T13:03:27;0.15;;;0.10;;
27424;SDS011;15244;49.088;11.886;2023-08-06T13:08:33;1.33;;;0.10;;
27424;SDS011;15244;49.088;11.886;2023-08-06T13:13:34;0.10;;;0.10;;
27424;SDS011;15244;49.088;11.886;2023-08-06T13:18:36;0.20;;;0.10;;
27424;SDS011;15244;49.088;11.886;2023-08-06T13:23:37;0.10;;;0.08;;
27424;SDS011;15244;49.088;11.886;2023-08-06T13:28:39;0.00;;;0.00;;
27424;SDS011;15244;49.088;11.886;2023-08-06T13:33:41;0.30;;;0.00;;
27424;SDS011;15244;49.088;11.886;2023-08-06T13:38:42;0.00;;;0.00;;
27424;SDS011;15244;49.088;11.886;2023-08-06T13:43:44;0.10;;;0.10;;
27424;SDS011;15244;49.088;11.886;2023-08-06T13:48:47;0.00;;;0.00;;
27424;SDS011;15244;49.088;11.886;2023-08-06T13:53:52;0.43;;;0.05;;
27424;SDS011;15244;49.088;11.886;2023-08-06T13:58:55;0.00;;;0.00;;
27424;SDS011;15244;49.088;11.886;2023-08-06T14:03:56;0.00;;;0.00;;
27424;SDS011;15244;49.088;11.886;2023-08-06T14:08:58;0.10;;;0.10;;
27424;SDS011;15244;49.088;11.886;2023-08-06T14:14:00;0.47;;;0.10;;
27424;SDS011;15244;49.088;11.886;2023-08-06T14:19:04;0.13;;;0.13;;
27424;SDS011;15244;49.088;11.886;2023-08-06T14:24:06;0.45;;;0.10;;
27424;SDS011;15244;49.088;11.886;2023-08-06T14:29:07;0.10;;;0.10;;
27424;SDS011;15244;49.088;11.886;2023-08-06T14:34:09;0.15;;;0.10;;
27424;SDS011;15244;49.088;11.886;2023-08-06T14:39:11;0.10;;;0.10;;
27424;SDS011;15244;49.088;11.886;2023-08-06T14:44:12;0.10;;;0.10;;
27424;SDS011;15244;49.088;11.886;2023-08-06T14:49:14;0.00;;;0.00;;
27424;SDS011;15244;49.088;11.886;2023-08-06T14:54:15;0.00;;;0.00;;
27424;SDS011;15244;49.088;11.886;2023-08-06T14:59:17;0.10;;;0.10;;
27424;SDS011;15244;49.088;11.886;2023-08-06T15:04:18;0.00;;;0.00;;
27424;SDS011;15244;49.088;11.886;2023-08-06T15:09:20;0.20;;;0.20;;
27424;SDS011;15244;49.088;11.886;2023-08-06T15:14:23;1.45;;;0.25;;
27424;SDS011;15244;49.088;11.886;2023-08-06T15:19:24;0.10;;;0.10;;
27424;SDS011;15244;49.088;11.886;2023-08-06T15:24:26;0.17;;;0.17;;
27424;SDS011;15244;49.088;11.886;2023-08-06T15:29:28;0.20;;;0.20;;
27424;SDS011;15244;49.088;11.886;2023-08-06T15:34:29;0.40;;;0.22;;
27424;SDS011;15244;49.088;11.886;2023-08-06T15:39:31;0.20;;;0.20;;
27424;SDS011;15244;49.088;11.886;2023-08-06T15:44:33;0.30;;;0.30;;
27424;SDS011;15244;49.088;11.886;2023-08-06T15:49:35;0.82;;;0.82;;
27424;SDS011;15244;49.088;11.886;2023-08-06T15:54:36;0.35;;;0.35;;
27424;SDS011;15244;49.088;11.886;2023-08-06T15:59:38;0.30;;;0.30;;
27424;SDS011;15244;49.088;11.886;2023-08-06T16:04:40;0.50;;;0.50;;
27424;SDS011;15244;49.088;11.886;2023-08-06T16:09:42;0.47;;;0.47;;
27424;SDS011;15244;49.088;11.886;2023-08-06T16:14:44;0.45;;;0.45;;
27424;SDS011;15244;49.088;11.886;2023-08-06T16:19:47;0.90;;;0.90;;
27424;SDS011;15244;49.088;11.886;2023-08-06T16:24:48;0.60;;;0.60;;
27424;SDS011;15244;49.088;11.886;2023-08-06T16:29:50;1.50;;;0.68;;
27424;SDS011;15244;49.088;11.886;2023-08-06T16:34:52;0.70;;;0.60;;
27424;SDS011;15244;49.088;11.886;2023-08-06T16:39:54;0.63;;;0.60;;
27424;SDS011;15244;49.088;11.886;2023-08-06T16:44:55;1.33;;;0.50;;
27424;SDS011;15244;49.088;11.886;2023-08-06T16:49:57;0.40;;;0.40;;
27424;SDS011;15244;49.088;11.886;2023-08-06T16:54:58;0.70;;;0.70;;
27424;SDS011;15244;49.088;11.886;2023-08-06T17:00:00;2.42;;;0.57;;
27424;SDS011;15244;49.088;11.886;2023-08-06T17:05:03;0.50;;;0.50;;
27424;SDS011;15244;49.088;11.886;2023-08-06T17:10:05;0.40;;;0.40;;
27424;SDS011;15244;49.088;11.886;2023-08-06T17:15:07;0.45;;;0.20;;
27424;SDS011;15244;49.088;11.886;2023-08-06T17:20:09;0.75;;;0.38;;
27424;SDS011;15244;49.088;11.886;2023-08-06T17:25:11;0.52;;;0.20;;
27424;SDS011;15244;49.088;11.886;2023-08-06T17:30:13;0.30;;;0.30;;
27424;SDS011;15244;49.088;11.886;2023-08-06T17:35:14;0.15;;;0.15;;
27424;SDS011;15244;49.088;11.886;2023-08-06T17:40:16;0.30;;;0.30;;
27424;SDS011;15244;49.088;11.886;2023-08-06T17:45:21;0.25;;;0.20;;
27424;SDS011;15244;49.088;11.886;2023-08-06T17:50:24;0.10;;;0.10;;
27424;SDS011;15244;49.088;11.886;2023-08-06T17:55:26;0.20;;;0.20;;
27424;SDS011;15244;49.088;11.886;2023-08-06T18:00:28;0.30;;;0.30;;
27424;SDS011;15244;49.088;11.886;2023-08-06T18:05:30;0.20;;;0.20;;
27424;SDS011;15244;49.088;11.886;2023-08-06T18:10:34;0.20;;;0.20;;
27424;SDS011;15244;49.088;11.886;2023-08-06T18:15:35;0.47;;;0.20;;
27424;SDS011;15244;49.088;11.886;2023-08-06T18:20:37;0.32;;;0.28;;
27424;SDS011;15244;49.088;11.886;2023-08-06T18:25:39;0.30;;;0.30;;
27424;SDS011;15244;49.088;11.886;2023-08-06T18:30:40;0.47;;;0.20;;
27424;SDS011;15244;49.088;11.886;2023-08-06T18:35:42;0.80;;;0.22;;
27424;SDS011;15244;49.088;11.886;2023-08-06T18:40:44;0.30;;;0.30;;
27424;SDS011;15244;49.088;11.886;2023-08-06T18:45:46;0.20;;;0.20;;
27424;SDS011;15244;49.088;11.886;2023-08-06T18:50:47;0.40;;;0.30;;
27424;SDS011;15244;49.088;11.886;2023-08-06T18:55:49;0.40;;;0.20;;
27424;SDS011;15244;49.088;11.886;2023-08-06T19:00:55;0.90;;;0.30;;
27424;SDS011;15244;49.088;11.886;2023-08-06T19:05:59;0.17;;;0.17;;
27424;SDS011;15244;49.088;11.886;2023-08-06T19:11:02;0.22;;;0.22;;
27424;SDS011;15244;49.088;11.886;2023-08-06T19:16:03;0.52;;;0.28;;
27424;SDS011;15244;49.088;11.886;2023-08-06T19:21:05;0.30;;;0.30;;
27424;SDS011;15244;49.088;11.886;2023-08-06T19:26:07;0.35;;;0.25;;
27424;SDS011;15244;49.088;11.886;2023-08-06T19:31:08;2.28;;;0.22;;
27424;SDS011;15244;49.088;11.886;2023-08-06T19:36:10;0.65;;;0.30;;
27424;SDS011;15244;49.088;11.886;2023-08-06T19:41:11;0.73;;;0.20;;
27424;SDS011;15244;49.088;11.886;2023-08-06T19:46:13;0.10;;;0.10;;
27424;SDS011;15244;49.088;11.886;2023-08-06T19:51:15;1.00;;;0.30;;
27424;SDS011;15244;49.088;11.886;2023-08-06T19:56:18;1.02;;;0.30;;
27424;SDS011;15244;49.088;11.886;2023-08-06T20:01:20;0.20;;;0.20;;
27424;SDS011;15244;49.088;11.886;2023-08-06T20:06:21;0.40;;;0.40;;
27424;SDS011;15244;49.088;11.886;2023-08-06T20:11:28;0.10;;;0.10;;
27424;SDS011;15244;49.088;11.886;2023-08-06T20:16:29;0.10;;;0.10;;
27424;SDS011;15244;49.088;11.886;2023-08-06T20:21:31;0.20;;;0.20;;
27424;SDS011;15244;49.088;11.886;2023-08-06T20:26:33;0.38;;;0.20;;
27424;SDS011;15244;49.088;11.886;2023-08-06T20:31:34;1.25;;;0.20;;
27424;SDS011;15244;49.088;11.886;2023-08-06T20:36:36;1.65;;;0.22;;
27424;SDS011;15244;49.088;11.886;2023-08-06T20:41:37;0.20;;;0.20;;
27424;SDS011;15244;49.088;11.886;2023-08-06T20:46:39;0.13;;;0.10;;
27424;SDS011;15244;49.088;11.886;2023-08-06T20:51:41;0.82;;;0.70;;
27424;SDS011;15244;49.088;11.886;2023-08-06T20:56:42;0.10;;;0.10;;
27424;SDS011;15244;49.088;11.886;2023-08-06T21:01:44;0.28;;;0.20;;
27424;SDS011;15244;49.088;11.886;2023-08-06T21:06:46;0.95;;;0.20;;
27424;SDS011;15244;49.088;11.886;2023-08-06T21:11:47;0.20;;;0.00;;
27424;SDS011;15244;49.088;11.886;2023-08-06T21:16:49;0.10;;;0.10;;
27424;SDS011;15244;49.088;11.886;2023-08-06T21:21:50;0.25;;;0.20;;
27424;SDS011;15244;49.088;11.886;2023-08-06T21:26:52;0.30;;;0.30;;
27424;SDS011;15244;49.088;11.886;2023-08-06T21:31:54;1.75;;;0.20;;
27424;SDS011;15244;49.088;11.886;2023-08-06T21:36:56;0.45;;;0.22;;
27424;SDS011;15244;49.088;11.886;2023-08-06T21:41:57;0.70;;;0.30;;
27424;SDS011;15244;49.088;11.886;2023-08-06T21:46:59;0.43;;;0.30;;
27424;SDS011;15244;49.088;11.886;2023-08-06T21:52:00;0.20;;;0.20;;
27424;SDS011;15244;49.088;11.886;2023-08-06T21:57:02;0.50;;;0.40;;
27424;SDS011;15244;49.088;11.886;2023-08-06T22:02:04;0.50;;;0.40;;
27424;SDS011;15244;49.088;11.886;2023-08-06T22:07:06;0.52;;;0.52;;
27424;SDS011;15244;49.088;11.886;2023-08-06T22:12:08;0.57;;;0.57;;
27424;SDS011;15244;49.088;11.886;2023-08-06T22:17:09;2.75;;;0.45;;
27424;SDS011;15244;49.088;11.886;2023-08-06T22:22:11;0.35;;;0.35;;
27424;SDS011;15244;49.088;11.886;2023-08-06T22:27:13;0.70;;;0.65;;
27424;SDS011;15244;49.088;11.886;2023-08-06T22:32:14;0.50;;;0.50;;
27424;SDS011;15244;49.088;11.886;2023-08-06T22:37:16;0.40;;;0.40;;
27424;SDS011;15244;49.088;11.886;2023-08-06T22:42:17;0.70;;;0.70;;
27424;SDS011;15244;49.088;11.886;2023-08-06T22:47:19;0.40;;;0.40;;
27424;SDS011;15244;49.088;11.886;2023-08-06T22:52:21;0.60;;;0.60;;
27424;SDS011;15244;49.088;11.886;2023-08-06T22:57:22;0.50;;;0.45;;
27424;SDS011;15244;49.088;11.886;2023-08-06T23:02:24;1.60;;;0.68;;
27424;SDS011;15244;49.088;11.886;2023-08-06T23:07:26;0.50;;;0.50;;
27424;SDS011;15244;49.088;11.886;2023-08-06T23:12:28;0.85;;;0.45;;
27424;SDS011;15244;49.088;11.886;2023-08-06T23:17:29;0.73;;;0.68;;
27424;SDS011;15244;49.088;11.886;2023-08-06T23:22:31;0.57;;;0.57;;
27424;SDS011;15244;49.088;11.886;2023-08-06T23:27:32;0.35;;;0.35;;
27424;SDS011;15244;49.088;11.886;2023-08-06T23:32:34;0.52;;;0.50;;
27424;SDS011;15244;49.088;11.886;2023-08-06T23:37:35;0.88;;;0.30;;
27424;SDS011;15244;49.088;11.886;2023-08-06T23:42:37;0.22;;;0.22;;
27424;SDS011;15244;49.088;11.886;2023-08-06T23:47:39;0.20;;;0.20;;
27424;SDS011;15244;49.088;11.886;2023-08-06T23:52:41;0.73;;;0.28;;
27424;SDS011;15244;49.088;11.886;2023-08-06T23:57:43;0.45;;;0.30;;
